Have a Safe July 4th! 

Flight Track Log - Related Links

Times and Time Zones

All times are in EDT time to prevent confusion due to time zone crossing. See the SWA1713 flight status page for this flight to view local times or setup timezone preferences in your user account.

Time Position Orientation Groundspeed Altitude Reporting Facility
EDT Latitude Longitude Course Direction KTS MPH feet Rate Location/Type
Sat 07:42:31 PM 34.1811 -118.3708 300° West 158 182 2,400  Level Los Angeles Center
Sat 07:43:45 PM 34.2039 -118.4178 300° West 236 272 4,800 1,632 Climbing Los Angeles Center
Sat 07:44:47 PM 34.2908 -118.4111 North 287 330 6,100 2,371 Climbing Los Angeles Center
Sat 07:45:49 PM 34.3678 -118.3758 21° North 293 337 9,700 3,532 Climbing Los Angeles Center
Sat 07:46:51 PM 34.4497 -118.3389 20° North 318 366 13,400 2,565 Climbing Los Angeles Center
Sat 07:47:53 PM 34.5019 -118.2372 58° Northeast 361 415 15,000 2,516 Climbing Los Angeles Center
Sat 07:48:55 PM 34.5394 -118.1003 72° East 371 427 18,600 3,339 Climbing Los Angeles Center
Sat 07:49:57 PM 34.5758 -117.9756 70° East 392 451 21,900 2,177 Climbing Los Angeles Center
Sat 07:50:59 PM 34.6153 -117.8389 71° East 432 497 23,100 1,024 Climbing Los Angeles Center
Sat 07:52:00 PM 34.6553 -117.6903 72° East 463 533 24,000 1,122 Climbing Los Angeles Center
Sat 07:53:02 PM 34.6969 -117.5411 71° East 470 541 25,400 2,177 Climbing Los Angeles Center
Sat 07:54:04 PM 34.7489 -117.3536 71° East 491 565 28,500 2,903 Climbing Los Angeles Center
Sat 07:55:06 PM 34.7922 -117.1992 71° East 491 565 31,400 2,382 Climbing Los Angeles Center
Sat 07:56:20 PM 34.8350 -117.0406 72° East 497 572 33,900 2,294 Climbing Los Angeles Center
Sat 07:57:22 PM 34.8886 -116.8544 71° East 489 563 36,600 2,129 Climbing Los Angeles Center
Sat 07:58:24 PM 34.9708 -116.7272 52° Northeast 480 552 38,300 1,171 Climbing Los Angeles Center
Sat 07:59:25 PM 35.0739 -116.5836 49° Northeast 473 544 39,000 311 Climbing Los Angeles Center
Sat 08:00:39 PM 35.1592 -116.4619 49° Northeast 471 542 39,000  Level Los Angeles Center
Sat 08:01:41 PM 35.2656 -116.3206 47° Northeast 471 542 39,000  Level Los Angeles Center
Sat 08:02:43 PM 35.3506 -116.1992 49° Northeast 470 541 39,000  Level Los Angeles Center
Sat 08:03:45 PM 35.4336 -116.0786 50° Northeast 466 536 39,000 48 Level Los Angeles Center
Sat 08:04:47 PM 35.5206 -115.9589 48° Northeast 470 541 39,100  Climbing Los Angeles Center
Sat 08:05:48 PM 35.6214 -115.8175 49° Northeast 467 537 39,000 -49 Descending Los Angeles Center
Sat 08:06:50 PM 35.6872 -115.6764 60° Northeast 477 549 39,000  Level Los Angeles Center
Sat 08:07:52 PM 35.7433 -115.5289 65° Northeast 478 550 39,000  Level Los Angeles Center
Sat 08:08:54 PM 35.7997 -115.3825 65° Northeast 477 549 39,000  Level Los Angeles Center
Sat 08:09:55 PM 35.8669 -115.2067 65° Northeast 476 548 39,000  Level Los Angeles Center
Sat 08:10:57 PM 35.9222 -115.0600 65° Northeast 477 549 39,000  Level Los Angeles Center
Sat 08:11:59 PM 35.9792 -114.9119 65° Northeast 478 550 39,000  Level Los Angeles Center
Sat 08:13:01 PM 36.0356 -114.7644 65° Northeast 479 551 39,000  Level Los Angeles Center
Sat 08:14:03 PM 36.0908 -114.6172 65° Northeast 476 548 39,000  Level Los Angeles Center
Sat 08:15:04 PM 36.1464 -114.4694 65° Northeast 476 548 39,000  Level Los Angeles Center
Sat 08:16:06 PM 36.2025 -114.3214 65° Northeast 477 549 39,000  Level Los Angeles Center
Sat 08:17:08 PM 36.2681 -114.1419 66° East 477 549 39,000  Level Los Angeles Center
Sat 08:18:09 PM 36.3233 -113.9925 65° Northeast 479 551 39,000  Level Los Angeles Center
Sat 08:19:11 PM 36.3794 -113.8425 65° Northeast 480 552 39,000  Level Los Angeles Center
Sat 08:20:13 PM 36.4336 -113.6919 66° East 479 551 39,000  Level Los Angeles Center
Sat 08:21:15 PM 36.4892 -113.5411 65° Northeast 480 552 39,000  Level Los Angeles Center
Sat 08:22:16 PM 36.5497 -113.3728 66° East 476 548 39,000  Level Los Angeles Center
Sat 08:23:18 PM 36.6039 -113.2233 66° East 476 548 39,000  Level Los Angeles Center
Sat 08:24:20 PM 36.6589 -113.0731 65° Northeast 478 550 39,000  Level Los Angeles Center
Sat 08:25:22 PM 36.7122 -112.9206 66° East 482 555 39,000  Level Los Angeles Center
Sat 08:26:24 PM 36.7669 -112.7700 66° East 481 554 39,000  Level Los Angeles Center
Sat 08:27:25 PM 36.8300 -112.5881 67° East 480 552 39,000  Level Los Angeles Center
Sat 08:28:27 PM 36.8853 -112.4375 65° Northeast 480 552 39,000  Level Los Angeles Center
Sat 08:29:29 PM 36.9375 -112.2861 67° East 479 551 39,000  Level Los Angeles Center
Sat 08:30:31 PM 36.9903 -112.1339 66° East 480 552 39,000  Level Los Angeles Center
Sat 08:31:23 PM 37.0333 -112.0106 66° East 480 552 39,000  Level Denver Center
Sat 08:32:24 PM 37.0986 -111.8278 66° East 482 555 39,000  Level Denver Center
Sat 08:33:26 PM 37.1511 -111.6756 67° East 480 552 39,000  Level Denver Center
Sat 08:34:27 PM 37.2000 -111.5258 68° East 471 542 39,000  Level Denver Center
Sat 08:35:29 PM 37.2525 -111.3722 67° East 480 552 39,000  Level Denver Center
Sat 08:36:30 PM 37.3042 -111.2197 67° East 478 550 39,000  Level Denver Center
Sat 08:37:31 PM 37.3544 -111.0672 67° East 474 545 39,000  Level Denver Center
Sat 08:38:33 PM 37.4058 -110.9133 67° East 478 550 39,000  Level Denver Center
Sat 08:39:34 PM 37.4578 -110.7611 67° East 475 547 39,000  Level Denver Center
Sat 08:40:47 PM 37.5172 -110.5769 68° East 476 548 39,000  Level Denver Center
Sat 08:41:49 PM 37.5783 -110.3928 67° East 476 548 39,000  Level Denver Center
Sat 08:42:50 PM 37.6256 -110.2450 68° East 475 547 39,000  Level Denver Center
Sat 08:43:51 PM 37.6817 -110.0750 67° East 471 542 39,000  Level Denver Center
Sat 08:44:53 PM 37.7294 -109.9256 68° East 477 549 39,000  Level Denver Center
Sat 08:45:54 PM 37.7775 -109.7767 68° East 477 549 39,000  Level Denver Center
Sat 08:46:55 PM 37.8386 -109.6050 66° East 479 551 39,000  Level Denver Center
Sat 08:47:57 PM 37.8950 -109.4617 63° Northeast 476 548 39,000  Level Denver Center
Sat 08:49:10 PM 37.9503 -109.3156 64° Northeast 479 551 39,000  Level Denver Center
Sat 08:50:23 PM 38.0231 -109.1194 65° Northeast 480 552 39,000  Level Denver Center
Sat 08:51:25 PM 38.0892 -108.9397 65° Northeast 477 549 39,000  Level Denver Center
Sat 08:52:26 PM 38.1517 -108.7706 65° Northeast 474 545 39,000  Level Denver Center
Sat 08:53:27 PM 38.2056 -108.6244 65° Northeast 476 548 39,000  Level Denver Center
Sat 08:54:29 PM 38.2686 -108.4572 64° Northeast 473 544 39,000  Level Denver Center
Sat 08:55:30 PM 38.3269 -108.3139 63° Northeast 475 547 39,000  Level Denver Center
Sat 08:56:31 PM 38.3847 -108.1708 63° Northeast 476 548 39,000  Level Denver Center
Sat 08:57:32 PM 38.4494 -108.0031 64° Northeast 474 545 39,000  Level Denver Center
Sat 08:58:33 PM 38.5067 -107.8578 63° Northeast 479 551 39,000  Level Denver Center
Sat 08:59:35 PM 38.5711 -107.6894 64° Northeast 475 547 39,000  Level Denver Center
Sat 09:00:36 PM 38.6261 -107.5461 64° Northeast 472 543 39,000  Level Denver Center
Sat 09:01:37 PM 38.6811 -107.4036 64° Northeast 469 540 39,000  Level Denver Center
Sat 09:02:38 PM 38.7450 -107.2347 64° Northeast 471 542 39,000  Level Denver Center
Sat 09:03:40 PM 38.8017 -107.0883 64° Northeast 479 551 39,000  Level Denver Center
Sat 09:04:41 PM 38.8583 -106.9378 64° Northeast 473 544 39,000  Level Denver Center
Sat 09:05:42 PM 38.9200 -106.7772 64° Northeast 470 541 39,000  Level Denver Center
Sat 09:06:43 PM 38.9739 -106.6331 64° Northeast 468 539 39,000  Level Denver Center
Sat 09:07:45 PM 39.0361 -106.4647 65° Northeast 468 539 39,000 -1,073 Level Denver Center
Sat 09:08:46 PM 39.0892 -106.3211 65° Northeast 465 535 36,800 -2,705 Descending Denver Center
Sat 09:09:47 PM 39.1494 -106.1558 65° Northeast 468 539 33,500 -3,295 Descending Denver Center
Sat 09:10:48 PM 39.2072 -105.9975 65° Northeast 482 555 30,100 -3,024 Descending Denver Center
Sat 09:11:50 PM 39.2631 -105.8428 65° Northeast 475 547 27,300 -2,634 Descending Denver Center
Sat 09:12:51 PM 39.3175 -105.6958 64° Northeast 454 522 24,700 -2,410 Descending Denver Center
Sat 09:13:52 PM 39.3683 -105.5533 65° Northeast 436 502 22,400 -1,770 Descending Denver Center
Sat 09:14:53 PM 39.4211 -105.4281 61° Northeast 402 463 21,100 -1,567 Descending Denver Center
Sat 09:16:06 PM 39.4881 -105.3064 54° Northeast 389 448 18,900 -1,822 Descending Denver Center
Sat 09:17:08 PM 39.5606 -105.1653 56° Northeast 378 435 17,000 -1,268 Descending Denver Center
Sat 09:18:09 PM 39.6158 -105.0619 55° Northeast 351 404 16,300 -1,073 Descending Denver Center
Sat 09:19:11 PM 39.6719 -104.9542 56° Northeast 366 421 14,800 -1,415 Descending Denver Center
Sat 09:20:12 PM 39.7322 -104.8511 53° Northeast 363 418 13,400 -1,525 Descending Denver Center
Sat 09:21:13 PM 39.8342 -104.8403 North 338 389 11,700 -1,230 Descending Denver Center
Sat 09:22:14 PM 39.9206 -104.8392 North 298 343 10,900 -585 Descending Denver Center
Sat 09:23:16 PM 39.9903 -104.8394 360° North 243 280 10,500 -732 Descending Denver Center
Sat 09:24:17 PM 40.0569 -104.8358 North 241 277 9,400 -1,131 Descending Denver Center
Sat 09:25:18 PM 40.0681 -104.7594 79° East 233 268 8,200 -1,131 Descending Denver Center
Sat 09:26:19 PM 40.0156 -104.7147 147° Southeast 211 243 7,100 -683 Descending Denver Center
Sat 09:27:21 PM 39.9733 -104.6861 153° Southeast 174 200 6,800 -537 Descending Denver Center
Sat 09:28:22 PM 39.9325 -104.6864 180° South 145 167 6,000 -738 Descending Denver Center
Sat 09:29:23 PM 39.8956 -104.6869 181° South 134 154 5,300 -689 Descending Denver Center
Sat 09:31:00 PM 39.8617 -104.6732 North  Level Estimated
Sat 09:38:00 PM 39.8617 -104.6732 North  Level Estimated
Sat 09:39:00 PM 39.8617 -104.6732 North  Level Estimated
Sat 09:40:00 PM 39.8617 -104.6732 North  Level Estimated

Login

Don't have an account? Register now (free) for customized features, flight alerts, and more!